»·PEaware :: SWA268 KBWI-KMEM

SWA268 :: KBWI-KMEM

FLIGHT INFORMATION

Flight Status: Arrived
Operator:
Southwest Airlines
More flights by this operator :: More flights under this callsign
Pilot: Andrew J. (13363)
Aircraft: BOEING 737-700
(B737)
More flights by this aircraft type
Origin: KBWI Baltimore-Washington Intl
United States
Destination: KMEM Memphis Intl
United States
More flights between these airports :: More routes between these airports
Route: TERPZ6 OTTTO Q80 FAREV BWG BLUZZ1
File this flight plan on PilotEdge
Remarks:
Altitude:
(Current/Filed)
36,000ft
Speed:
(Current/Filed)
460kts
Departed: 04-Jun-17 10:29 PM
Arrived: 05-Jun-17 12:19 AM
Distance/Time
Traveled:
683nm/1:50
Distance/Time
To Go:
Arrived

Flight Plot

Page will automatically refresh every two minutes.

Flight plan parsing failed; only flown route is shown


Map Options




Map Legend


Flown Route
Filed Route
Departure Airport
Arrival Airport
Navaid (VOR, NDB)
Fix

Horizontal Profiles

Position Reports

Time Latitude Longitude Heading Altitude Ground
Speed
04-Jun-17 22:30 39.218387 -76.934432 269 9034ft 270kts
04-Jun-17 22:31 39.219886 -77.017352 270 11313ft 293kts
04-Jun-17 22:32 39.215745 -77.133598 247 12941ft 350kts
04-Jun-17 22:33 39.152082 -77.232313 227 15806ft 368kts
04-Jun-17 22:34 39.080123 -77.326809 228 18433ft 381kts
04-Jun-17 22:35 39.029711 -77.447910 253 20819ft 387kts
04-Jun-17 22:36 38.998646 -77.582347 254 22863ft 398kts
04-Jun-17 22:37 38.966833 -77.720171 255 24635ft 407kts
04-Jun-17 22:38 38.934813 -77.860577 255 26250ft 413kts
04-Jun-17 22:39 38.901791 -78.003644 255 27651ft 420kts
04-Jun-17 22:40 38.867927 -78.148014 255 28878ft 425kts
04-Jun-17 22:41 38.853887 -78.296396 270 30437ft 416kts
04-Jun-17 22:42 38.842201 -78.442366 260 32088ft 410kts
04-Jun-17 22:43 38.818851 -78.584495 260 33673ft 402kts
04-Jun-17 22:44 38.795650 -78.723726 260 34988ft 398kts
04-Jun-17 22:45 38.772892 -78.861681 261 35897ft 397kts
04-Jun-17 22:46 38.750105 -78.999201 261 35918ft 392kts
04-Jun-17 22:47 38.726756 -79.136240 260 35933ft 393kts
04-Jun-17 22:48 38.703481 -79.273137 261 35944ft 394kts
04-Jun-17 22:49 38.681151 -79.410315 261 35955ft 395kts
04-Jun-17 22:50 38.658259 -79.547526 260 35965ft 395kts
04-Jun-17 22:51 38.635078 -79.685406 260 35973ft 396kts
04-Jun-17 22:52 38.610780 -79.822897 260 35978ft 397kts
04-Jun-17 22:53 38.585857 -79.960560 259 35980ft 398kts
04-Jun-17 22:54 38.560692 -80.098326 259 35979ft 399kts
04-Jun-17 22:55 38.535067 -80.236765 259 35979ft 399kts
04-Jun-17 22:56 38.509286 -80.374358 259 35974ft 398kts
04-Jun-17 22:57 38.483370 -80.511728 259 35965ft 398kts
04-Jun-17 22:58 38.457736 -80.648978 259 35966ft 398kts
04-Jun-17 22:59 38.432016 -80.786651 259 35969ft 398kts
04-Jun-17 23:00 38.405803 -80.923547 258 35972ft 398kts
04-Jun-17 23:01 38.379354 -81.060245 258 35948ft 397kts
04-Jun-17 23:02 38.348969 -81.195762 255 35940ft 399kts
04-Jun-17 23:03 38.315747 -81.331096 255 35930ft 399kts
04-Jun-17 23:04 38.282688 -81.466186 255 35919ft 400kts
04-Jun-17 23:05 38.249541 -81.601567 254 35915ft 402kts
04-Jun-17 23:06 38.215659 -81.736982 253 35920ft 403kts
04-Jun-17 23:07 38.177572 -81.871486 252 35927ft 403kts
04-Jun-17 23:08 38.139515 -82.005675 252 35932ft 404kts
04-Jun-17 23:09 38.101488 -82.139851 252 35932ft 404kts
04-Jun-17 23:10 38.063753 -82.274617 252 35929ft 404kts
04-Jun-17 23:11 38.025539 -82.408156 252 35921ft 403kts
04-Jun-17 23:12 37.987101 -82.541650 252 35919ft 405kts
04-Jun-17 23:13 37.948488 -82.675851 252 35923ft 406kts
04-Jun-17 23:14 37.909352 -82.810381 251 35929ft 407kts
04-Jun-17 23:15 37.869688 -82.944257 251 35934ft 406kts
04-Jun-17 23:16 37.829353 -83.077869 250 35940ft 407kts
04-Jun-17 23:17 37.788755 -83.211475 250 35940ft 407kts
04-Jun-17 23:18 37.749292 -83.345798 251 35939ft 407kts
04-Jun-17 23:19 37.710292 -83.480067 251 36342ft 406kts
04-Jun-17 23:20 37.671582 -83.612589 251 37474ft 400kts
04-Jun-17 23:21 37.633369 -83.744238 251 37932ft 399kts
04-Jun-17 23:22 37.595040 -83.875484 251 37939ft 398kts
04-Jun-17 23:23 37.556756 -84.006202 251 37937ft 398kts
04-Jun-17 23:24 37.517954 -84.136723 250 37939ft 399kts
04-Jun-17 23:25 37.478691 -84.267779 249 37940ft 400kts
04-Jun-17 23:26 37.437824 -84.397861 249 37941ft 401kts
04-Jun-17 23:27 37.396882 -84.528312 249 37942ft 402kts
04-Jun-17 23:28 37.355449 -84.658771 249 37938ft 402kts
04-Jun-17 23:29 37.313862 -84.790012 249 37939ft 403kts
04-Jun-17 23:30 37.272363 -84.921007 249 37938ft 404kts
04-Jun-17 23:31 37.230514 -85.051902 248 37939ft 405kts
04-Jun-17 23:32 37.194016 -85.185208 255 37938ft 405kts
04-Jun-17 23:33 37.166177 -85.322365 255 37929ft 406kts
04-Jun-17 23:34 37.137791 -85.459075 255 37921ft 406kts
04-Jun-17 23:35 37.109397 -85.595695 255 37909ft 406kts
04-Jun-17 23:36 37.080900 -85.732447 255 37903ft 407kts
04-Jun-17 23:37 37.051959 -85.869629 254 37900ft 407kts
04-Jun-17 23:38 37.022848 -86.006534 254 37898ft 408kts
04-Jun-17 23:39 36.993648 -86.144192 254 37900ft 410kts
04-Jun-17 23:40 36.963888 -86.281974 254 37900ft 411kts
04-Jun-17 23:41 36.933265 -86.420241 251 37900ft 412kts
04-Jun-17 23:42 36.882352 -86.548386 241 37902ft 413kts
04-Jun-17 23:43 36.826841 -86.674139 241 37904ft 414kts
04-Jun-17 23:44 36.771016 -86.799928 241 37906ft 415kts
04-Jun-17 23:45 36.715183 -86.926427 241 37899ft 416kts
04-Jun-17 23:46 36.659120 -87.052560 241 37888ft 417kts
04-Jun-17 23:47 36.602695 -87.178805 241 37888ft 418kts
04-Jun-17 23:48 36.545960 -87.305202 241 37888ft 419kts
04-Jun-17 23:49 36.488652 -87.432380 240 37887ft 421kts
04-Jun-17 23:50 36.431411 -87.559515 240 37884ft 423kts
04-Jun-17 23:51 36.373551 -87.686667 240 37869ft 424kts
04-Jun-17 23:52 36.315219 -87.814386 240 37867ft 425kts
04-Jun-17 23:53 36.256722 -87.941843 240 37868ft 426kts
04-Jun-17 23:54 36.198465 -88.069283 240 36198ft 425kts
04-Jun-17 23:55 36.139450 -88.197192 239 33197ft 432kts
04-Jun-17 23:56 36.079114 -88.327260 240 30095ft 434kts
04-Jun-17 23:57 36.020410 -88.453239 240 27813ft 415kts
04-Jun-17 23:58 35.963686 -88.574459 239 25458ft 401kts
04-Jun-17 23:59 35.908728 -88.691552 239 23158ft 388kts
05-Jun-17 00:00 35.855831 -88.805358 239 20911ft 375kts
05-Jun-17 00:01 35.804364 -88.914613 239 18740ft 363kts
05-Jun-17 00:02 35.754425 -89.020018 239 16630ft 350kts
05-Jun-17 00:03 35.697233 -89.114638 225 14366ft 344kts
05-Jun-17 00:04 35.632415 -89.197308 226 12570ft 334kts
05-Jun-17 00:05 35.572040 -89.280337 231 10910ft 317kts
05-Jun-17 00:06 35.521678 -89.356392 230 10259ft 262kts
05-Jun-17 00:07 35.488604 -89.430577 258 9665ft 259kts
05-Jun-17 00:08 35.478192 -89.519305 259 8989ft 259kts
05-Jun-17 00:09 35.466328 -89.606068 259 8323ft 256kts
05-Jun-17 00:10 35.454153 -89.691736 258 7666ft 253kts
05-Jun-17 00:11 35.441484 -89.776269 258 7017ft 251kts
05-Jun-17 00:12 35.428666 -89.860082 258 6372ft 248kts
05-Jun-17 00:13 35.415934 -89.942648 256 5737ft 245kts
05-Jun-17 00:14 35.363699 -89.989637 198 4931ft 245kts
05-Jun-17 00:15 35.297650 -89.993066 180 4305ft 226kts
05-Jun-17 00:16 35.240889 -89.991585 181 3932ft 186kts
05-Jun-17 00:17 35.189472 -89.990459 181 3049ft 180kts
05-Jun-17 00:18 35.142041 -89.989437 180 2130ft 162kts
05-Jun-17 00:19 35.097826 -89.988484 178 1298ft 149kts
05-Jun-17 00:20 35.058860 -89.987633 178 528ft 136kts
05-Jun-17 00:21 35.032136 -89.986724 159 349ft 27kts
05-Jun-17 00:22 35.031008 -89.984681 10 349ft 10kts
05-Jun-17 00:23 35.035649 -89.984781 359 349ft 35kts
05-Jun-17 00:24 35.042217 -89.985029 357 349ft 11kts
05-Jun-17 00:25 35.044562 -89.984732 100 349ft 1kts
05-Jun-17 00:26 35.044552 -89.984122 88 349ft 0kts
05-Jun-17 00:27 35.044552 -89.984122 88 349ft 0kts
05-Jun-17 00:28 35.044552 -89.984122 88 349ft 0kts
05-Jun-17 00:29 35.044552 -89.984122 88 349ft 0kts
05-Jun-17 00:30 35.044552 -89.984122 88 349ft 0kts
05-Jun-17 00:31 35.044552 -89.984122 88 349ft 0kts

Navigation Log

Ident Type
Flight plan parsing failed, navigation log unavailable